sensor_id;sensor_type;location;lat;lon;timestamp;temperature;humidity
47805;DHT22;33568;45.286;9.900;2023-04-30T00:01:56;19.90;94.10
47805;DHT22;33568;45.286;9.900;2023-04-30T00:04:22;19.90;94.20
47805;DHT22;33568;45.286;9.900;2023-04-30T00:06:49;19.80;94.20
47805;DHT22;33568;45.286;9.900;2023-04-30T00:09:15;19.90;94.20
47805;DHT22;33568;45.286;9.900;2023-04-30T00:11:42;19.90;94.30
47805;DHT22;33568;45.286;9.900;2023-04-30T00:14:09;19.90;94.20
47805;DHT22;33568;45.286;9.900;2023-04-30T00:16:35;19.90;94.30
47805;DHT22;33568;45.286;9.900;2023-04-30T00:19:02;19.90;94.30
47805;DHT22;33568;45.286;9.900;2023-04-30T00:21:28;19.90;94.30
47805;DHT22;33568;45.286;9.900;2023-04-30T00:23:54;19.90;94.30
47805;DHT22;33568;45.286;9.900;2023-04-30T00:26:21;19.90;94.40
47805;DHT22;33568;45.286;9.900;2023-04-30T00:28:48;19.80;94.50
47805;DHT22;33568;45.286;9.900;2023-04-30T00:31:15;19.80;94.60
47805;DHT22;33568;45.286;9.900;2023-04-30T00:33:41;19.80;94.50
47805;DHT22;33568;45.286;9.900;2023-04-30T00:36:08;19.80;94.60
47805;DHT22;33568;45.286;9.900;2023-04-30T00:38:34;19.70;94.60
47805;DHT22;33568;45.286;9.900;2023-04-30T00:41:01;19.70;94.60
47805;DHT22;33568;45.286;9.900;2023-04-30T00:43:27;19.60;94.60
47805;DHT22;33568;45.286;9.900;2023-04-30T00:45:54;19.50;94.80
47805;DHT22;33568;45.286;9.900;2023-04-30T00:48:23;19.50;94.90
47805;DHT22;33568;45.286;9.900;2023-04-30T00:50:50;19.50;94.90
47805;DHT22;33568;45.286;9.900;2023-04-30T00:53:16;19.50;94.80
47805;DHT22;33568;45.286;9.900;2023-04-30T00:55:43;19.50;94.80
47805;DHT22;33568;45.286;9.900;2023-04-30T00:58:09;19.40;94.90
47805;DHT22;33568;45.286;9.900;2023-04-30T01:00:36;19.40;94.90
47805;DHT22;33568;45.286;9.900;2023-04-30T01:03:03;19.40;94.80
47805;DHT22;33568;45.286;9.900;2023-04-30T01:05:29;19.30;94.90
47805;DHT22;33568;45.286;9.900;2023-04-30T01:07:55;19.30;94.90
47805;DHT22;33568;45.286;9.900;2023-04-30T01:10:27;19.10;95.40
47805;DHT22;33568;45.286;9.900;2023-04-30T01:13:00;19.10;95.00
47805;DHT22;33568;45.286;9.900;2023-04-30T01:15:46;19.10;95.00
47805;DHT22;33568;45.286;9.900;2023-04-30T01:18:28;19.10;95.10
47805;DHT22;33568;45.286;9.900;2023-04-30T01:21:03;19.10;95.00
47805;DHT22;33568;45.286;9.900;2023-04-30T01:28:49;18.80;95.30
47805;DHT22;33568;45.286;9.900;2023-04-30T01:31:20;18.80;95.40
47805;DHT22;33568;45.286;9.900;2023-04-30T01:33:49;18.80;95.40
47805;DHT22;33568;45.286;9.900;2023-04-30T01:42:04;18.70;95.60
47805;DHT22;33568;45.286;9.900;2023-04-30T01:47:47;18.50;96.00
47805;DHT22;33568;45.286;9.900;2023-04-30T01:50:46;18.50;96.20
47805;DHT22;33568;45.286;9.900;2023-04-30T01:53:20;18.40;96.30
47805;DHT22;33568;45.286;9.900;2023-04-30T01:58:21;18.30;96.50
47805;DHT22;33568;45.286;9.900;2023-04-30T02:00:49;18.20;96.70
47805;DHT22;33568;45.286;9.900;2023-04-30T02:03:15;18.20;97.00
47805;DHT22;33568;45.286;9.900;2023-04-30T02:05:42;18.10;97.10
47805;DHT22;33568;45.286;9.900;2023-04-30T02:08:09;18.10;97.30
47805;DHT22;33568;45.286;9.900;2023-04-30T02:10:35;18.00;97.40
47805;DHT22;33568;45.286;9.900;2023-04-30T02:13:02;18.10;97.50
47805;DHT22;33568;45.286;9.900;2023-04-30T02:15:29;18.00;97.70
47805;DHT22;33568;45.286;9.900;2023-04-30T02:17:55;18.00;97.70
47805;DHT22;33568;45.286;9.900;2023-04-30T02:20:22;18.00;97.80
47805;DHT22;33568;45.286;9.900;2023-04-30T02:22:48;18.00;97.80
47805;DHT22;33568;45.286;9.900;2023-04-30T02:25:14;17.90;98.60
47805;DHT22;33568;45.286;9.900;2023-04-30T02:27:41;17.90;97.80
47805;DHT22;33568;45.286;9.900;2023-04-30T02:30:09;17.90;97.80
47805;DHT22;33568;45.286;9.900;2023-04-30T02:32:35;17.80;97.90
47805;DHT22;33568;45.286;9.900;2023-04-30T02:35:02;17.90;98.00
47805;DHT22;33568;45.286;9.900;2023-04-30T02:37:29;17.90;98.00
47805;DHT22;33568;45.286;9.900;2023-04-30T02:39:56;17.80;98.00
47805;DHT22;33568;45.286;9.900;2023-04-30T02:42:22;17.80;98.00
47805;DHT22;33568;45.286;9.900;2023-04-30T02:44:49;17.80;98.00
47805;DHT22;33568;45.286;9.900;2023-04-30T02:47:15;17.80;98.00
47805;DHT22;33568;45.286;9.900;2023-04-30T02:49:41;17.80;98.10
47805;DHT22;33568;45.286;9.900;2023-04-30T02:52:08;17.70;98.10
47805;DHT22;33568;45.286;9.900;2023-04-30T02:54:35;17.60;98.70
47805;DHT22;33568;45.286;9.900;2023-04-30T02:57:02;17.60;98.10
47805;DHT22;33568;45.286;9.900;2023-04-30T02:59:29;17.60;98.10
47805;DHT22;33568;45.286;9.900;2023-04-30T03:01:56;17.60;98.10
47805;DHT22;33568;45.286;9.900;2023-04-30T03:04:22;17.60;98.20
47805;DHT22;33568;45.286;9.900;2023-04-30T03:06:49;17.50;98.30
47805;DHT22;33568;45.286;9.900;2023-04-30T03:09:15;17.50;98.90
47805;DHT22;33568;45.286;9.900;2023-04-30T03:11:42;17.40;98.30
47805;DHT22;33568;45.286;9.900;2023-04-30T03:14:09;17.40;98.30
47805;DHT22;33568;45.286;9.900;2023-04-30T03:16:35;17.40;98.40
47805;DHT22;33568;45.286;9.900;2023-04-30T03:19:02;17.40;98.40
47805;DHT22;33568;45.286;9.900;2023-04-30T03:21:28;17.40;98.40
47805;DHT22;33568;45.286;9.900;2023-04-30T03:23:55;17.30;98.90
47805;DHT22;33568;45.286;9.900;2023-04-30T03:26:21;17.30;98.40
47805;DHT22;33568;45.286;9.900;2023-04-30T03:28:47;17.30;99.10
47805;DHT22;33568;45.286;9.900;2023-04-30T03:31:14;17.30;98.40
47805;DHT22;33568;45.286;9.900;2023-04-30T03:33:41;17.30;98.30
47805;DHT22;33568;45.286;9.900;2023-04-30T03:36:07;17.30;98.40
47805;DHT22;33568;45.286;9.900;2023-04-30T03:38:34;17.20;98.50
47805;DHT22;33568;45.286;9.900;2023-04-30T03:41:01;17.20;98.50
47805;DHT22;33568;45.286;9.900;2023-04-30T03:43:29;17.20;98.70
47805;DHT22;33568;45.286;9.900;2023-04-30T03:45:55;17.20;98.70
47805;DHT22;33568;45.286;9.900;2023-04-30T03:48:22;17.10;98.70
47805;DHT22;33568;45.286;9.900;2023-04-30T03:50:48;17.10;98.80
47805;DHT22;33568;45.286;9.900;2023-04-30T03:53:15;17.10;98.80
47805;DHT22;33568;45.286;9.900;2023-04-30T03:55:41;17.10;98.80
47805;DHT22;33568;45.286;9.900;2023-04-30T03:58:08;17.10;98.80
47805;DHT22;33568;45.286;9.900;2023-04-30T04:00:35;17.10;98.90
47805;DHT22;33568;45.286;9.900;2023-04-30T04:03:02;17.00;98.90
47805;DHT22;33568;45.286;9.900;2023-04-30T04:05:29;17.00;98.90
47805;DHT22;33568;45.286;9.900;2023-04-30T04:07:55;17.00;98.90
47805;DHT22;33568;45.286;9.900;2023-04-30T04:10:22;16.90;99.20
47805;DHT22;33568;45.286;9.900;2023-04-30T04:12:49;16.90;98.90
47805;DHT22;33568;45.286;9.900;2023-04-30T04:15:15;16.90;98.90
47805;DHT22;33568;45.286;9.900;2023-04-30T04:17:42;16.90;98.90
47805;DHT22;33568;45.286;9.900;2023-04-30T04:20:09;16.90;98.90
47805;DHT22;33568;45.286;9.900;2023-04-30T04:22:38;16.90;98.90
47805;DHT22;33568;45.286;9.900;2023-04-30T04:25:04;16.90;98.90
47805;DHT22;33568;45.286;9.900;2023-04-30T04:27:33;16.90;99.30
47805;DHT22;33568;45.286;9.900;2023-04-30T04:30:00;16.90;98.80
47805;DHT22;33568;45.286;9.900;2023-04-30T04:32:27;16.80;99.30
47805;DHT22;33568;45.286;9.900;2023-04-30T04:34:53;16.90;99.50
47805;DHT22;33568;45.286;9.900;2023-04-30T04:37:20;16.90;98.60
47805;DHT22;33568;45.286;9.900;2023-04-30T04:39:47;17.00;98.60
47805;DHT22;33568;45.286;9.900;2023-04-30T04:42:17;17.00;98.60
47805;DHT22;33568;45.286;9.900;2023-04-30T04:44:44;17.00;98.70
47805;DHT22;33568;45.286;9.900;2023-04-30T04:47:11;17.00;98.70
47805;DHT22;33568;45.286;9.900;2023-04-30T04:49:38;17.10;98.70
47805;DHT22;33568;45.286;9.900;2023-04-30T04:52:05;17.20;98.70
47805;DHT22;33568;45.286;9.900;2023-04-30T04:54:31;17.20;98.80
47805;DHT22;33568;45.286;9.900;2023-04-30T04:56:57;17.30;98.70
47805;DHT22;33568;45.286;9.900;2023-04-30T04:59:24;17.20;99.20
47805;DHT22;33568;45.286;9.900;2023-04-30T05:01:51;17.30;98.70
47805;DHT22;33568;45.286;9.900;2023-04-30T05:04:18;17.30;98.70
47805;DHT22;33568;45.286;9.900;2023-04-30T05:06:45;17.30;98.70
47805;DHT22;33568;45.286;9.900;2023-04-30T05:09:12;17.30;98.80
47805;DHT22;33568;45.286;9.900;2023-04-30T05:11:38;17.40;98.80
47805;DHT22;33568;45.286;9.900;2023-04-30T05:14:06;17.50;98.80
47805;DHT22;33568;45.286;9.900;2023-04-30T05:16:33;17.60;98.80
47805;DHT22;33568;45.286;9.900;2023-04-30T05:18:59;17.70;98.70
47805;DHT22;33568;45.286;9.900;2023-04-30T05:21:26;17.70;98.60
47805;DHT22;33568;45.286;9.900;2023-04-30T05:23:55;17.70;98.80
47805;DHT22;33568;45.286;9.900;2023-04-30T05:26:21;17.70;98.60
47805;DHT22;33568;45.286;9.900;2023-04-30T05:28:49;17.70;98.60
47805;DHT22;33568;45.286;9.900;2023-04-30T05:31:17;17.70;98.60
47805;DHT22;33568;45.286;9.900;2023-04-30T05:33:44;17.80;98.50
47805;DHT22;33568;45.286;9.900;2023-04-30T05:36:10;17.90;98.40
47805;DHT22;33568;45.286;9.900;2023-04-30T05:38:37;18.00;98.30
47805;DHT22;33568;45.286;9.900;2023-04-30T05:41:03;18.00;98.20
47805;DHT22;33568;45.286;9.900;2023-04-30T05:43:30;17.90;98.40
47805;DHT22;33568;45.286;9.900;2023-04-30T05:45:56;18.00;98.30
47805;DHT22;33568;45.286;9.900;2023-04-30T05:48:22;17.90;98.50
47805;DHT22;33568;45.286;9.900;2023-04-30T05:50:49;18.00;98.20
47805;DHT22;33568;45.286;9.900;2023-04-30T05:53:15;18.10;98.30
47805;DHT22;33568;45.286;9.900;2023-04-30T05:55:41;18.20;98.00
47805;DHT22;33568;45.286;9.900;2023-04-30T05:58:08;18.20;98.20
47805;DHT22;33568;45.286;9.900;2023-04-30T06:00:34;18.30;97.90
47805;DHT22;33568;45.286;9.900;2023-04-30T06:03:01;18.30;98.10
47805;DHT22;33568;45.286;9.900;2023-04-30T06:05:27;18.40;97.80
47805;DHT22;33568;45.286;9.900;2023-04-30T06:07:54;18.40;97.80
47805;DHT22;33568;45.286;9.900;2023-04-30T06:10:20;18.50;97.60
47805;DHT22;33568;45.286;9.900;2023-04-30T06:12:46;18.40;97.60
47805;DHT22;33568;45.286;9.900;2023-04-30T06:15:13;18.40;97.60
47805;DHT22;33568;45.286;9.900;2023-04-30T06:17:39;18.50;97.60
47805;DHT22;33568;45.286;9.900;2023-04-30T06:20:06;18.30;97.20
47805;DHT22;33568;45.286;9.900;2023-04-30T06:22:33;18.40;97.50
47805;DHT22;33568;45.286;9.900;2023-04-30T06:24:59;18.40;97.40
47805;DHT22;33568;45.286;9.900;2023-04-30T06:27:26;18.40;97.40
47805;DHT22;33568;45.286;9.900;2023-04-30T06:29:57;18.50;97.40
47805;DHT22;33568;45.286;9.900;2023-04-30T06:32:26;18.60;97.10
47805;DHT22;33568;45.286;9.900;2023-04-30T06:34:52;18.80;96.90
47805;DHT22;33568;45.286;9.900;2023-04-30T06:37:18;18.90;96.80
47805;DHT22;33568;45.286;9.900;2023-04-30T06:39:45;18.80;96.10
47805;DHT22;33568;45.286;9.900;2023-04-30T06:42:11;18.80;96.60
47805;DHT22;33568;45.286;9.900;2023-04-30T06:44:37;18.70;96.10
47805;DHT22;33568;45.286;9.900;2023-04-30T06:47:04;18.90;96.20
47805;DHT22;33568;45.286;9.900;2023-04-30T06:49:30;19.00;95.70
47805;DHT22;33568;45.286;9.900;2023-04-30T06:51:57;19.10;95.30
47805;DHT22;33568;45.286;9.900;2023-04-30T06:54:24;19.20;95.00
47805;DHT22;33568;45.286;9.900;2023-04-30T06:56:52;19.30;94.70
47805;DHT22;33568;45.286;9.900;2023-04-30T06:59:18;19.40;94.30
47805;DHT22;33568;45.286;9.900;2023-04-30T07:01:45;19.50;94.00
47805;DHT22;33568;45.286;9.900;2023-04-30T07:04:11;19.50;93.70
47805;DHT22;33568;45.286;9.900;2023-04-30T07:06:38;19.60;93.30
47805;DHT22;33568;45.286;9.900;2023-04-30T07:09:04;19.70;93.00
47805;DHT22;33568;45.286;9.900;2023-04-30T07:11:31;19.70;92.60
47805;DHT22;33568;45.286;9.900;2023-04-30T07:13:57;19.70;92.30
47805;DHT22;33568;45.286;9.900;2023-04-30T07:16:24;19.70;92.10
47805;DHT22;33568;45.286;9.900;2023-04-30T07:18:50;19.70;91.90
47805;DHT22;33568;45.286;9.900;2023-04-30T07:21:17;19.90;92.10
47805;DHT22;33568;45.286;9.900;2023-04-30T07:23:44;20.00;91.70
47805;DHT22;33568;45.286;9.900;2023-04-30T07:26:10;20.10;91.20
47805;DHT22;33568;45.286;9.900;2023-04-30T07:28:37;20.20;90.80
47805;DHT22;33568;45.286;9.900;2023-04-30T07:31:03;20.30;90.60
47805;DHT22;33568;45.286;9.900;2023-04-30T07:33:29;20.30;89.20
47805;DHT22;33568;45.286;9.900;2023-04-30T07:35:56;20.50;90.30
47805;DHT22;33568;45.286;9.900;2023-04-30T07:38:23;20.70;89.70
47805;DHT22;33568;45.286;9.900;2023-04-30T07:40:50;20.80;88.90
47805;DHT22;33568;45.286;9.900;2023-04-30T07:43:16;20.90;88.60
47805;DHT22;33568;45.286;9.900;2023-04-30T07:45:43;21.10;88.40
47805;DHT22;33568;45.286;9.900;2023-04-30T07:48:09;21.10;87.00
47805;DHT22;33568;45.286;9.900;2023-04-30T07:50:36;21.20;88.10
47805;DHT22;33568;45.286;9.900;2023-04-30T07:53:02;21.20;87.40
47805;DHT22;33568;45.286;9.900;2023-04-30T07:55:30;21.30;87.40
47805;DHT22;33568;45.286;9.900;2023-04-30T07:57:56;21.40;87.00
47805;DHT22;33568;45.286;9.900;2023-04-30T08:00:23;21.50;86.50
47805;DHT22;33568;45.286;9.900;2023-04-30T08:02:51;21.60;86.20
47805;DHT22;33568;45.286;9.900;2023-04-30T08:05:18;21.80;85.90
47805;DHT22;33568;45.286;9.900;2023-04-30T08:07:44;21.90;85.30
47805;DHT22;33568;45.286;9.900;2023-04-30T08:10:11;22.10;84.80
47805;DHT22;33568;45.286;9.900;2023-04-30T08:12:37;22.20;84.40
47805;DHT22;33568;45.286;9.900;2023-04-30T08:15:05;22.30;83.90
47805;DHT22;33568;45.286;9.900;2023-04-30T08:17:33;22.50;83.30
47805;DHT22;33568;45.286;9.900;2023-04-30T08:20:01;22.60;82.70
47805;DHT22;33568;45.286;9.900;2023-04-30T08:22:28;22.60;82.10
47805;DHT22;33568;45.286;9.900;2023-04-30T08:24:55;22.70;81.90
47805;DHT22;33568;45.286;9.900;2023-04-30T08:27:22;22.80;82.00
47805;DHT22;33568;45.286;9.900;2023-04-30T08:29:48;23.00;81.40
47805;DHT22;33568;45.286;9.900;2023-04-30T08:32:15;23.10;81.00
47805;DHT22;33568;45.286;9.900;2023-04-30T08:34:41;23.20;80.30
47805;DHT22;33568;45.286;9.900;2023-04-30T08:37:08;23.30;79.90
47805;DHT22;33568;45.286;9.900;2023-04-30T08:39:36;23.30;79.20
47805;DHT22;33568;45.286;9.900;2023-04-30T08:42:08;23.30;78.70
47805;DHT22;33568;45.286;9.900;2023-04-30T08:44:36;23.40;78.30
47805;DHT22;33568;45.286;9.900;2023-04-30T08:47:06;23.50;78.20
47805;DHT22;33568;45.286;9.900;2023-04-30T08:49:34;23.50;77.70
47805;DHT22;33568;45.286;9.900;2023-04-30T08:52:02;23.60;77.80
47805;DHT22;33568;45.286;9.900;2023-04-30T08:54:30;23.70;77.80
47805;DHT22;33568;45.286;9.900;2023-04-30T08:56:59;23.80;76.90
47805;DHT22;33568;45.286;9.900;2023-04-30T08:59:26;24.00;76.60
47805;DHT22;33568;45.286;9.900;2023-04-30T09:01:52;24.10;76.40
47805;DHT22;33568;45.286;9.900;2023-04-30T09:04:19;24.10;75.90
47805;DHT22;33568;45.286;9.900;2023-04-30T09:06:45;24.10;75.90
47805;DHT22;33568;45.286;9.900;2023-04-30T09:09:13;24.00;75.80
47805;DHT22;33568;45.286;9.900;2023-04-30T09:11:41;23.90;75.90
47805;DHT22;33568;45.286;9.900;2023-04-30T09:14:08;24.00;76.10
47805;DHT22;33568;45.286;9.900;2023-04-30T09:16:46;24.10;76.00
47805;DHT22;33568;45.286;9.900;2023-04-30T09:19:29;24.20;73.90
47805;DHT22;33568;45.286;9.900;2023-04-30T09:21:56;24.10;72.20
47805;DHT22;33568;45.286;9.900;2023-04-30T09:24:23;23.90;73.50
47805;DHT22;33568;45.286;9.900;2023-04-30T09:26:50;23.80;73.20
47805;DHT22;33568;45.286;9.900;2023-04-30T09:29:16;23.80;73.40
47805;DHT22;33568;45.286;9.900;2023-04-30T09:31:45;24.00;73.40
47805;DHT22;33568;45.286;9.900;2023-04-30T09:34:12;24.20;72.80
47805;DHT22;33568;45.286;9.900;2023-04-30T09:36:52;24.40;72.00
47805;DHT22;33568;45.286;9.900;2023-04-30T09:39:22;24.50;70.50
47805;DHT22;33568;45.286;9.900;2023-04-30T09:41:52;24.50;70.50
47805;DHT22;33568;45.286;9.900;2023-04-30T09:44:31;24.60;69.80
47805;DHT22;33568;45.286;9.900;2023-04-30T09:47:00;24.60;69.60
47805;DHT22;33568;45.286;9.900;2023-04-30T09:49:28;24.70;69.90
47805;DHT22;33568;45.286;9.900;2023-04-30T09:52:00;24.70;69.60
47805;DHT22;33568;45.286;9.900;2023-04-30T09:54:29;24.80;69.20
47805;DHT22;33568;45.286;9.900;2023-04-30T09:56:58;25.10;69.20
47805;DHT22;33568;45.286;9.900;2023-04-30T09:59:32;25.10;68.30
47805;DHT22;33568;45.286;9.900;2023-04-30T10:02:02;25.10;67.30
47805;DHT22;33568;45.286;9.900;2023-04-30T10:07:23;25.20;67.10
47805;DHT22;33568;45.286;9.900;2023-04-30T10:09:57;25.20;67.40
47805;DHT22;33568;45.286;9.900;2023-04-30T10:12:42;25.30;66.90
47805;DHT22;33568;45.286;9.900;2023-04-30T10:15:15;25.40;65.20
47805;DHT22;33568;45.286;9.900;2023-04-30T10:17:49;25.50;65.60
47805;DHT22;33568;45.286;9.900;2023-04-30T10:20:18;25.60;65.20
47805;DHT22;33568;45.286;9.900;2023-04-30T10:22:47;25.40;65.50
47805;DHT22;33568;45.286;9.900;2023-04-30T10:25:13;25.60;65.90
47805;DHT22;33568;45.286;9.900;2023-04-30T10:27:41;25.70;65.60
47805;DHT22;33568;45.286;9.900;2023-04-30T10:30:09;25.40;65.20
47805;DHT22;33568;45.286;9.900;2023-04-30T10:35:25;25.40;65.10
47805;DHT22;33568;45.286;9.900;2023-04-30T10:37:56;25.40;65.20
47805;DHT22;33568;45.286;9.900;2023-04-30T10:40:27;25.50;65.60
47805;DHT22;33568;45.286;9.900;2023-04-30T10:42:54;25.50;65.50
47805;DHT22;33568;45.286;9.900;2023-04-30T10:45:37;25.70;65.40
47805;DHT22;33568;45.286;9.900;2023-04-30T10:48:06;25.80;64.50
47805;DHT22;33568;45.286;9.900;2023-04-30T10:50:39;25.80;65.10
47805;DHT22;33568;45.286;9.900;2023-04-30T10:53:12;25.60;64.50
47805;DHT22;33568;45.286;9.900;2023-04-30T10:55:52;25.30;65.10
47805;DHT22;33568;45.286;9.900;2023-04-30T10:58:26;25.40;65.00
47805;DHT22;33568;45.286;9.900;2023-04-30T11:01:19;25.30;64.90
47805;DHT22;33568;45.286;9.900;2023-04-30T11:09:37;25.00;65.00
47805;DHT22;33568;45.286;9.900;2023-04-30T11:14:43;24.80;65.00
47805;DHT22;33568;45.286;9.900;2023-04-30T11:17:12;24.70;65.50
47805;DHT22;33568;45.286;9.900;2023-04-30T11:19:48;24.70;66.00
47805;DHT22;33568;45.286;9.900;2023-04-30T11:27:25;24.70;66.40
47805;DHT22;33568;45.286;9.900;2023-04-30T11:29:53;24.60;67.00
47805;DHT22;33568;45.286;9.900;2023-04-30T11:32:20;24.50;67.10
47805;DHT22;33568;45.286;9.900;2023-04-30T11:34:48;24.50;67.30
47805;DHT22;33568;45.286;9.900;2023-04-30T11:37:34;24.40;66.90
47805;DHT22;33568;45.286;9.900;2023-04-30T11:40:12;24.40;66.40
47805;DHT22;33568;45.286;9.900;2023-04-30T11:42:40;24.40;67.00
47805;DHT22;33568;45.286;9.900;2023-04-30T11:45:10;24.70;66.90
47805;DHT22;33568;45.286;9.900;2023-04-30T11:47:47;24.90;66.80
47805;DHT22;33568;45.286;9.900;2023-04-30T11:50:16;25.00;66.30
47805;DHT22;33568;45.286;9.900;2023-04-30T11:52:49;25.20;66.20
47805;DHT22;33568;45.286;9.900;2023-04-30T11:55:18;25.10;66.00
47805;DHT22;33568;45.286;9.900;2023-04-30T11:57:49;25.20;66.10
47805;DHT22;33568;45.286;9.900;2023-04-30T12:00:27;25.20;66.20
47805;DHT22;33568;45.286;9.900;2023-04-30T12:02:54;25.20;66.30
47805;DHT22;33568;45.286;9.900;2023-04-30T12:05:22;25.40;66.50
47805;DHT22;33568;45.286;9.900;2023-04-30T12:10:18;25.00;66.10
47805;DHT22;33568;45.286;9.900;2023-04-30T12:12:46;24.90;66.10
47805;DHT22;33568;45.286;9.900;2023-04-30T12:15:17;24.80;66.50
47805;DHT22;33568;45.286;9.900;2023-04-30T12:17:45;24.80;66.20
47805;DHT22;33568;45.286;9.900;2023-04-30T12:20:13;24.80;66.40
47805;DHT22;33568;45.286;9.900;2023-04-30T12:22:41;24.80;66.50
47805;DHT22;33568;45.286;9.900;2023-04-30T12:25:12;24.70;66.90
47805;DHT22;33568;45.286;9.900;2023-04-30T12:27:40;24.60;66.40
47805;DHT22;33568;45.286;9.900;2023-04-30T12:30:08;24.60;66.50
47805;DHT22;33568;45.286;9.900;2023-04-30T12:32:43;24.50;66.60
47805;DHT22;33568;45.286;9.900;2023-04-30T12:35:15;24.50;66.50
47805;DHT22;33568;45.286;9.900;2023-04-30T12:37:49;24.50;66.90
47805;DHT22;33568;45.286;9.900;2023-04-30T12:40:20;24.60;67.10
47805;DHT22;33568;45.286;9.900;2023-04-30T12:42:47;24.60;67.20
47805;DHT22;33568;45.286;9.900;2023-04-30T12:45:49;24.70;67.00
47805;DHT22;33568;45.286;9.900;2023-04-30T12:48:20;24.70;66.90
47805;DHT22;33568;45.286;9.900;2023-04-30T12:50:59;24.80;67.00
47805;DHT22;33568;45.286;9.900;2023-04-30T12:53:27;24.90;66.40
47805;DHT22;33568;45.286;9.900;2023-04-30T12:56:14;24.90;66.60
47805;DHT22;33568;45.286;9.900;2023-04-30T12:58:43;24.80;66.30
47805;DHT22;33568;45.286;9.900;2023-04-30T13:01:18;24.80;66.80
47805;DHT22;33568;45.286;9.900;2023-04-30T13:03:45;25.00;66.80
47805;DHT22;33568;45.286;9.900;2023-04-30T13:06:12;24.90;67.00
47805;DHT22;33568;45.286;9.900;2023-04-30T13:08:39;25.00;67.10
47805;DHT22;33568;45.286;9.900;2023-04-30T13:11:06;25.00;67.10
47805;DHT22;33568;45.286;9.900;2023-04-30T13:13:32;25.00;66.70
47805;DHT22;33568;45.286;9.900;2023-04-30T13:15:59;25.10;66.60
47805;DHT22;33568;45.286;9.900;2023-04-30T13:18:25;25.10;66.70
47805;DHT22;33568;45.286;9.900;2023-04-30T13:20:52;25.10;66.30
47805;DHT22;33568;45.286;9.900;2023-04-30T13:23:18;25.00;66.40
47805;DHT22;33568;45.286;9.900;2023-04-30T13:25:45;25.00;66.60
47805;DHT22;33568;45.286;9.900;2023-04-30T13:28:11;25.00;66.40
47805;DHT22;33568;45.286;9.900;2023-04-30T13:30:38;25.00;66.50
47805;DHT22;33568;45.286;9.900;2023-04-30T13:33:06;25.10;66.50
47805;DHT22;33568;45.286;9.900;2023-04-30T13:35:32;25.20;66.40
47805;DHT22;33568;45.286;9.900;2023-04-30T13:37:59;25.00;66.10
47805;DHT22;33568;45.286;9.900;2023-04-30T13:40:25;24.90;66.10
47805;DHT22;33568;45.286;9.900;2023-04-30T13:42:52;24.80;66.40
47805;DHT22;33568;45.286;9.900;2023-04-30T13:45:18;24.90;66.20
47805;DHT22;33568;45.286;9.900;2023-04-30T13:47:45;24.90;66.00
47805;DHT22;33568;45.286;9.900;2023-04-30T13:50:12;25.00;65.80
47805;DHT22;33568;45.286;9.900;2023-04-30T13:52:38;25.00;65.50
47805;DHT22;33568;45.286;9.900;2023-04-30T13:55:05;25.00;65.40
47805;DHT22;33568;45.286;9.900;2023-04-30T13:57:32;25.00;65.00
47805;DHT22;33568;45.286;9.900;2023-04-30T13:59:59;25.00;64.90
47805;DHT22;33568;45.286;9.900;2023-04-30T14:02:26;24.80;64.60
47805;DHT22;33568;45.286;9.900;2023-04-30T14:04:55;24.80;64.90
47805;DHT22;33568;45.286;9.900;2023-04-30T14:07:23;24.70;65.10
47805;DHT22;33568;45.286;9.900;2023-04-30T14:09:49;24.60;65.20
47805;DHT22;33568;45.286;9.900;2023-04-30T14:12:16;24.60;65.20
47805;DHT22;33568;45.286;9.900;2023-04-30T14:14:43;24.60;65.00
47805;DHT22;33568;45.286;9.900;2023-04-30T14:17:09;24.60;65.20
47805;DHT22;33568;45.286;9.900;2023-04-30T14:19:36;24.60;65.10
47805;DHT22;33568;45.286;9.900;2023-04-30T14:22:02;24.50;64.80
47805;DHT22;33568;45.286;9.900;2023-04-30T14:24:29;24.50;64.60
47805;DHT22;33568;45.286;9.900;2023-04-30T14:26:56;24.50;64.50
47805;DHT22;33568;45.286;9.900;2023-04-30T14:29:25;24.50;64.50
47805;DHT22;33568;45.286;9.900;2023-04-30T14:31:52;24.50;64.10
47805;DHT22;33568;45.286;9.900;2023-04-30T14:34:18;24.60;63.90
47805;DHT22;33568;45.286;9.900;2023-04-30T14:36:44;24.60;63.50
47805;DHT22;33568;45.286;9.900;2023-04-30T14:39:11;24.70;63.20
47805;DHT22;33568;45.286;9.900;2023-04-30T14:41:38;24.70;63.00
47805;DHT22;33568;45.286;9.900;2023-04-30T14:44:04;24.80;63.10
47805;DHT22;33568;45.286;9.900;2023-04-30T14:46:30;24.80;63.20
47805;DHT22;33568;45.286;9.900;2023-04-30T14:48:58;24.90;63.10
47805;DHT22;33568;45.286;9.900;2023-04-30T14:51:25;24.90;62.80
47805;DHT22;33568;45.286;9.900;2023-04-30T14:53:51;24.90;62.50
47805;DHT22;33568;45.286;9.900;2023-04-30T14:56:18;25.00;62.50
47805;DHT22;33568;45.286;9.900;2023-04-30T14:58:44;24.90;62.40
47805;DHT22;33568;45.286;9.900;2023-04-30T15:01:10;25.00;62.40
47805;DHT22;33568;45.286;9.900;2023-04-30T15:03:37;25.00;62.20
47805;DHT22;33568;45.286;9.900;2023-04-30T15:06:04;25.00;62.00
47805;DHT22;33568;45.286;9.900;2023-04-30T15:08:30;24.80;61.60
47805;DHT22;33568;45.286;9.900;2023-04-30T15:10:57;24.70;61.80
47805;DHT22;33568;45.286;9.900;2023-04-30T15:13:24;24.60;61.80
47805;DHT22;33568;45.286;9.900;2023-04-30T15:15:50;24.60;62.00
47805;DHT22;33568;45.286;9.900;2023-04-30T15:18:17;24.60;61.90
47805;DHT22;33568;45.286;9.900;2023-04-30T15:20:43;24.50;61.80
47805;DHT22;33568;45.286;9.900;2023-04-30T15:23:10;24.30;61.80
47805;DHT22;33568;45.286;9.900;2023-04-30T15:25:37;24.30;62.20
47805;DHT22;33568;45.286;9.900;2023-04-30T15:28:04;24.20;62.40
47805;DHT22;33568;45.286;9.900;2023-04-30T15:30:31;24.20;62.50
47805;DHT22;33568;45.286;9.900;2023-04-30T15:32:58;24.10;62.60
47805;DHT22;33568;45.286;9.900;2023-04-30T15:35:25;24.10;62.70
47805;DHT22;33568;45.286;9.900;2023-04-30T15:37:53;24.10;62.80
47805;DHT22;33568;45.286;9.900;2023-04-30T15:40:19;24.00;63.00
47805;DHT22;33568;45.286;9.900;2023-04-30T15:42:46;24.00;63.30
47805;DHT22;33568;45.286;9.900;2023-04-30T15:45:12;24.10;63.50
47805;DHT22;33568;45.286;9.900;2023-04-30T15:47:39;24.10;63.80
47805;DHT22;33568;45.286;9.900;2023-04-30T15:50:06;24.10;63.90
47805;DHT22;33568;45.286;9.900;2023-04-30T15:52:33;24.20;64.10
47805;DHT22;33568;45.286;9.900;2023-04-30T15:55:00;24.20;64.40
47805;DHT22;33568;45.286;9.900;2023-04-30T15:57:26;24.20;64.60
47805;DHT22;33568;45.286;9.900;2023-04-30T15:59:53;24.20;64.50
47805;DHT22;33568;45.286;9.900;2023-04-30T16:02:19;24.20;64.80
47805;DHT22;33568;45.286;9.900;2023-04-30T16:04:46;24.20;64.70
47805;DHT22;33568;45.286;9.900;2023-04-30T16:07:12;24.20;64.80
47805;DHT22;33568;45.286;9.900;2023-04-30T16:09:39;24.20;65.00
47805;DHT22;33568;45.286;9.900;2023-04-30T16:12:07;24.30;65.10
47805;DHT22;33568;45.286;9.900;2023-04-30T16:14:33;24.10;65.10